Clarkton, Missouri
Current Conditions -  °F | °C
As of 6:53 PM on Monday 22 Dec 2014 (Local Time) from KPOF Reporting Station
Overcast Overcast  
Wind Chill: 53°   Ceiling: 500
Heat Index: 53°   Visibility: 7mi
Dew Point: 51°   Wind: 8mph
Humidity: 93%   Direction: 190°S
Pressure: 29.57"   Gusts: NA
Location:  36.45°N, 89.97°W
Report Text: KPOF 230053Z AUTO 19007KT 7SM BKN005 OVC013 12/11 A2957 RMK AO2 RAB03E53 SLP014 P0002 T01170106
Loading
Personal Weather Stations






























Interactive Weather Map New forecast layout! Learn more

10-Day Weather Forecast

Advertisements
Track Severe Weather on mobile